Webster City, Iowa
Current Conditions -  °F | °C
As of 5:55 PM on Monday 20 Oct 2014 (Local Time) from KEBS Reporting Station
Clear Clear  
Wind Chill: 66°   Ceiling: Unl
Heat Index: 66°   Visibility: 10mi
Dew Point: 39°   Wind: 9mph
Humidity: 37%   Direction: 320°NW
Pressure: 29.99"   Gusts: NA
Location:  42.47°N, 93.82°W
Report Text: KEBS 202255Z AUTO 32008KT 10SM CLR 19/04 A2999 RMK AO2
Loading
Personal Weather Stations






























Interactive Weather Map
Tropical Storm Tracking
New forecast layout! Learn more

10-Day Weather Forecast

Advertisements
Track Severe Weather on mobile